Time;durP1;ratioP1;P1;durP2;ratioP2;P2;SDS_P1;SDS_P2;PMS_P1;PMS_P2;Temp;Humidity;BMP_temperature;BMP_pressure;BME280_temperature;BME280_humidity;BME280_pressure;Samples;Min_cycle;Max_cycle;Signal;HPM_P1;HPM_P2
2023/05/10 00:01:05;;;;;;;10.35;9.27;;;13.60;99.90;;;;;;4981043;28;20084;-81
2023/05/10 00:03:31;;;;;;;10.77;9.27;;;13.50;99.90;;;;;;5001307;28;20099;-81
2023/05/10 00:05:56;;;;;;;14.70;9.73;;;13.50;99.90;;;;;;4997172;28;20038;-82
2023/05/10 00:08:22;;;;;;;11.25;10.05;;;13.50;99.90;;;;;;5009359;28;20883;-81
2023/05/10 00:10:48;;;;;;;12.55;11.25;;;13.50;99.90;;;;;;4978757;28;20417;-80
2023/05/10 00:13:14;;;;;;;12.07;10.48;;;13.50;99.90;;;;;;4988762;28;20037;-80
2023/05/10 00:15:40;;;;;;;12.00;10.18;;;13.40;99.90;;;;;;5007171;28;20049;-81
2023/05/10 00:18:06;;;;;;;12.20;9.95;;;13.40;99.90;;;;;;4988331;28;20042;-80
2023/05/10 00:20:32;;;;;;;15.20;10.88;;;13.40;99.90;;;;;;5001675;28;20393;-81
2023/05/10 00:22:57;;;;;;;12.95;10.93;;;13.30;99.90;;;;;;5006435;28;20510;-81
2023/05/10 00:25:23;;;;;;;12.00;10.43;;;13.30;99.90;;;;;;5003748;28;20041;-81
2023/05/10 00:27:51;;;;;;;12.82;10.98;;;13.30;99.90;;;;;;5015261;28;20068;-81
2023/05/10 00:30:17;;;;;;;13.93;12.07;;;13.30;99.90;;;;;;5024971;28;20487;-80
2023/05/10 00:32:43;;;;;;;15.30;11.02;;;13.30;99.90;;;;;;4998442;28;20081;-81
2023/05/10 00:35:09;;;;;;;14.55;11.32;;;13.30;99.90;;;;;;5021519;28;20047;-81
2023/05/10 00:37:35;;;;;;;14.25;11.35;;;13.30;99.90;;;;;;5011866;28;20511;-82
2023/05/10 00:40:01;;;;;;;12.98;10.75;;;13.30;99.90;;;;;;4992371;28;20037;-81
2023/05/10 00:42:26;;;;;;;13.48;11.27;;;13.30;99.90;;;;;;4976489;28;20095;-81
2023/05/10 00:44:52;;;;;;;14.98;11.50;;;13.40;99.90;;;;;;5011081;28;20045;-81
2023/05/10 00:47:18;;;;;;;13.18;11.65;;;13.30;99.90;;;;;;4988971;28;20040;-81
2023/05/10 00:49:44;;;;;;;12.95;10.82;;;13.30;99.90;;;;;;4984982;28;20082;-81
2023/05/10 00:52:10;;;;;;;12.55;10.43;;;13.30;99.90;;;;;;4991999;28;20034;-81
2023/05/10 00:54:36;;;;;;;15.82;11.93;;;13.30;99.90;;;;;;4990471;28;20117;-80
2023/05/10 00:57:03;;;;;;;14.35;11.45;;;13.30;99.90;;;;;;5017993;28;20034;-80
2023/05/10 00:59:29;;;;;;;15.90;12.38;;;13.30;99.90;;;;;;4993280;28;20037;-80
2023/05/10 01:01:55;;;;;;;14.75;11.80;;;13.30;99.90;;;;;;5026754;28;20037;-81
2023/05/10 01:04:25;;;;;;;14.15;11.82;;;13.30;99.90;;;;;;4992791;28;20044;-80
2023/05/10 01:06:52;;;;;;;13.98;11.98;;;13.30;99.90;;;;;;4997661;28;20045;-80
2023/05/10 01:09:19;;;;;;;16.13;12.70;;;13.40;99.90;;;;;;5011824;28;20049;-80
2023/05/10 01:11:45;;;;;;;14.13;10.90;;;13.30;99.90;;;;;;4998553;28;20085;-80
2023/05/10 01:14:11;;;;;;;13.70;11.05;;;13.40;99.90;;;;;;4996344;28;20489;-81
2023/05/10 01:16:39;;;;;;;13.35;11.90;;;13.40;99.90;;;;;;5000463;28;20033;-80
2023/05/10 01:19:23;;;;;;;15.98;12.70;;;13.40;99.90;;;;;;4984959;28;20045;-80
2023/05/10 01:22:01;;;;;;;12.40;10.82;;;13.40;99.90;;;;;;4998113;28;20042;-81
2023/05/10 01:24:45;;;;;;;13.65;11.10;;;13.40;99.90;;;;;;5001654;28;20128;-81
2023/05/10 01:27:20;;;;;;;12.52;10.70;;;13.30;99.90;;;;;;4995686;28;20067;-80
2023/05/10 01:30:09;;;;;;;12.95;10.00;;;13.30;99.90;;;;;;5016492;28;20056;-80
2023/05/10 01:33:21;;;;;;;13.27;11.70;;;13.30;99.90;;;;;;4981312;28;20085;-81
2023/05/10 01:36:16;;;;;;;14.60;10.77;;;13.30;99.90;;;;;;5012358;28;20042;-81
2023/05/10 01:38:52;;;;;;;13.40;10.93;;;13.20;99.90;;;;;;4969803;28;20049;-82
2023/05/10 01:41:45;;;;;;;16.63;11.88;;;13.20;99.90;;;;;;4988149;28;20067;-81
2023/05/10 01:44:23;;;;;;;18.88;12.15;;;13.20;99.90;;;;;;5012335;28;20050;-81
2023/05/10 01:47:05;;;;;;;15.98;11.40;;;13.20;99.90;;;;;;4998058;28;20168;-81
2023/05/10 01:49:34;;;;;;;17.42;11.50;;;13.20;99.90;;;;;;5007213;28;20045;-81
2023/05/10 01:52:09;;;;;;;13.35;10.30;;;13.20;99.90;;;;;;4993921;28;20107;-81
2023/05/10 01:54:38;;;;;;;14.50;10.98;;;13.20;99.90;;;;;;4985167;28;20104;-82
2023/05/10 01:57:12;;;;;;;14.20;10.57;;;13.10;99.90;;;;;;5005652;28;20450;-81
2023/05/10 01:59:40;;;;;;;13.45;10.13;;;13.10;99.90;;;;;;4989422;28;20136;-81
2023/05/10 02:02:11;;;;;;;13.90;11.00;;;13.10;99.90;;;;;;5015804;28;20480;-82
2023/05/10 02:04:39;;;;;;;14.63;10.67;;;13.10;99.90;;;;;;4983695;28;20045;-81
2023/05/10 02:07:07;;;;;;;14.98;10.68;;;13.10;99.90;;;;;;4997167;28;20115;-82
2023/05/10 02:09:34;;;;;;;14.05;10.55;;;13.10;99.90;;;;;;4995061;28;20037;-84
2023/05/10 02:12:03;;;;;;;13.90;10.35;;;13.00;99.90;;;;;;4984454;28;20077;-82
2023/05/10 02:14:35;;;;;;;13.25;10.27;;;13.00;99.90;;;;;;5008332;28;20044;-81
2023/05/10 02:17:04;;;;;;;14.50;10.57;;;13.00;99.90;;;;;;4988268;28;20052;-81
2023/05/10 02:19:31;;;;;;;12.90;9.48;;;13.00;99.90;;;;;;5008634;28;20506;-81
2023/05/10 02:21:58;;;;;;;13.27;9.48;;;13.00;99.90;;;;;;4989266;28;20081;-81
2023/05/10 02:24:25;;;;;;;12.60;9.85;;;13.00;99.90;;;;;;4997848;28;20048;-81
2023/05/10 02:26:55;;;;;;;12.93;9.30;;;13.00;99.90;;;;;;4990310;28;20060;-81
2023/05/10 02:29:23;;;;;;;13.30;9.88;;;13.00;99.90;;;;;;4996504;28;20120;-81
2023/05/10 02:31:52;;;;;;;14.60;10.45;;;13.00;99.90;;;;;;5011443;28;20041;-83
2023/05/10 02:34:21;;;;;;;14.50;10.38;;;13.00;99.90;;;;;;4995714;28;20034;-82
2023/05/10 02:36:47;;;;;;;15.95;10.80;;;13.00;99.90;;;;;;4998923;28;20630;-81
2023/05/10 02:39:15;;;;;;;14.60;10.35;;;13.00;99.90;;;;;;4995593;28;20148;-81
2023/05/10 02:41:43;;;;;;;14.25;10.15;;;13.00;99.90;;;;;;4998362;28;20405;-81
2023/05/10 02:44:10;;;;;;;14.23;10.10;;;13.00;99.90;;;;;;5005695;28;20046;-81
2023/05/10 02:46:37;;;;;;;15.10;10.35;;;13.00;99.90;;;;;;4995164;28;20049;-82
2023/05/10 02:49:03;;;;;;;17.13;10.48;;;13.00;99.90;;;;;;5001776;28;20038;-81
2023/05/10 02:51:32;;;;;;;14.40;10.93;;;13.00;99.90;;;;;;5011971;28;20038;-82
2023/05/10 02:54:03;;;;;;;12.90;10.10;;;13.00;99.90;;;;;;5000411;28;20048;-83
2023/05/10 02:56:33;;;;;;;14.55;9.98;;;13.00;99.90;;;;;;4994861;28;20473;-81
2023/05/10 02:58:59;;;;;;;15.43;10.45;;;13.00;99.90;;;;;;4993693;28;20038;-81
2023/05/10 03:01:24;;;;;;;15.57;11.23;;;13.00;99.90;;;;;;4988097;28;20068;-82
2023/05/10 03:03:53;;;;;;;14.85;10.45;;;13.00;99.90;;;;;;4996199;28;20471;-81
2023/05/10 03:06:19;;;;;;;16.83;11.27;;;13.00;99.90;;;;;;4994781;28;20091;-81
2023/05/10 03:08:45;;;;;;;15.73;11.95;;;13.00;99.90;;;;;;4988947;28;20130;-81
2023/05/10 03:11:25;;;;;;;15.70;10.82;;;13.00;99.90;;;;;;4996499;28;20057;-81
2023/05/10 03:14:06;;;;;;;17.33;11.15;;;13.00;99.90;;;;;;4988736;28;20078;-81
2023/05/10 03:16:42;;;;;;;15.63;10.85;;;13.00;99.90;;;;;;4998195;28;20046;-81
2023/05/10 03:19:20;;;;;;;14.50;10.75;;;13.00;99.90;;;;;;4990738;28;20050;-81
2023/05/10 03:21:51;;;;;;;14.27;10.00;;;12.90;99.90;;;;;;4996210;28;20528;-81
2023/05/10 03:24:21;;;;;;;14.15;10.10;;;12.90;99.90;;;;;;4998853;28;20049;-81
2023/05/10 03:26:48;;;;;;;13.93;10.40;;;12.90;99.90;;;;;;5002780;28;20041;-81
2023/05/10 03:29:15;;;;;;;15.35;11.30;;;12.90;99.90;;;;;;4987198;28;20135;-81
2023/05/10 03:31:41;;;;;;;15.85;11.00;;;12.90;99.90;;;;;;4997613;28;20046;-81
2023/05/10 03:34:07;;;;;;;17.30;10.77;;;12.90;99.90;;;;;;4991178;28;20046;-80
2023/05/10 03:36:33;;;;;;;17.15;11.35;;;12.90;99.90;;;;;;4997490;28;20370;-81
2023/05/10 03:38:59;;;;;;;14.85;10.73;;;12.90;99.90;;;;;;5013788;28;20408;-81
2023/05/10 03:41:25;;;;;;;16.35;11.50;;;12.90;99.90;;;;;;4995950;28;20049;-81
2023/05/10 03:43:51;;;;;;;15.93;11.02;;;12.90;99.90;;;;;;4983604;28;20062;-81
2023/05/10 03:46:17;;;;;;;16.35;11.35;;;13.00;99.90;;;;;;4990384;28;20073;-81
2023/05/10 03:48:42;;;;;;;13.23;10.05;;;12.90;99.90;;;;;;4973432;28;20077;-81
2023/05/10 03:51:08;;;;;;;15.50;11.48;;;13.00;99.90;;;;;;4985098;28;20038;-81
2023/05/10 03:53:34;;;;;;;17.63;12.40;;;13.00;99.90;;;;;;4989948;28;20107;-81
2023/05/10 03:56:00;;;;;;;16.83;12.23;;;12.90;99.90;;;;;;4997188;28;20034;-82
2023/05/10 03:58:25;;;;;;;16.60;11.75;;;12.90;99.90;;;;;;4973903;28;20038;-83
2023/05/10 04:00:52;;;;;;;15.63;11.63;;;12.90;99.90;;;;;;4981896;28;20044;-80
2023/05/10 04:03:18;;;;;;;16.25;11.35;;;12.90;99.90;;;;;;4980352;28;20034;-81
2023/05/10 04:05:43;;;;;;;14.73;11.38;;;12.90;99.90;;;;;;4990488;28;20050;-81
2023/05/10 04:08:09;;;;;;;16.65;12.07;;;12.90;99.90;;;;;;4992891;28;20126;-80
2023/05/10 04:10:35;;;;;;;15.18;11.82;;;12.90;99.90;;;;;;5014112;28;20061;-81
2023/05/10 04:13:01;;;;;;;13.57;10.20;;;12.90;99.90;;;;;;4978262;28;20381;-81
2023/05/10 04:15:26;;;;;;;15.52;10.35;;;12.90;99.90;;;;;;4976909;28;20065;-81
2023/05/10 04:17:53;;;;;;;12.60;10.05;;;12.90;99.90;;;;;;5010048;28;20121;-81
2023/05/10 04:20:19;;;;;;;12.07;9.43;;;12.90;99.90;;;;;;4987250;28;20486;-81
2023/05/10 04:22:44;;;;;;;12.35;9.50;;;12.80;99.90;;;;;;4991648;28;20050;-81
2023/05/10 04:25:10;;;;;;;11.50;9.55;;;12.80;99.90;;;;;;5011821;28;20042;-82
2023/05/10 04:27:36;;;;;;;12.27;9.55;;;12.80;99.90;;;;;;4992765;28;20397;-80
2023/05/10 04:30:03;;;;;;;12.77;9.85;;;12.90;99.90;;;;;;4995772;28;20068;-81
2023/05/10 04:32:29;;;;;;;10.85;8.70;;;12.80;99.90;;;;;;4981763;28;20386;-81
2023/05/10 04:34:54;;;;;;;9.98;8.98;;;12.80;99.90;;;;;;5016083;28;20085;-81
2023/05/10 04:37:21;;;;;;;10.35;9.18;;;12.80;99.90;;;;;;4993367;28;20084;-81
2023/05/10 04:39:47;;;;;;;10.73;8.73;;;12.90;99.90;;;;;;4990175;28;20096;-83
2023/05/10 04:42:14;;;;;;;13.38;8.82;;;12.80;99.90;;;;;;4992128;28;20094;-81
2023/05/10 04:44:40;;;;;;;11.30;8.55;;;12.80;99.90;;;;;;4974702;28;20049;-81
2023/05/10 04:47:06;;;;;;;10.65;8.25;;;12.80;99.90;;;;;;5022949;28;20045;-82
2023/05/10 04:49:32;;;;;;;10.43;8.00;;;12.80;99.90;;;;;;4967982;28;20096;-81
2023/05/10 04:51:58;;;;;;;12.90;9.48;;;12.80;99.90;;;;;;4984281;28;20123;-81
2023/05/10 04:54:24;;;;;;;10.25;8.63;;;12.80;99.90;;;;;;4972262;28;20038;-80
2023/05/10 04:56:49;;;;;;;10.68;8.52;;;12.80;99.90;;;;;;4995361;28;20046;-83
2023/05/10 04:59:15;;;;;;;11.05;8.93;;;12.80;99.90;;;;;;5022081;28;20057;-82
2023/05/10 05:01:41;;;;;;;12.52;9.55;;;12.80;99.90;;;;;;4982738;28;20470;-80
2023/05/10 05:04:06;;;;;;;11.38;9.13;;;12.80;99.90;;;;;;4993796;28;20034;-81
2023/05/10 05:06:32;;;;;;;12.45;9.52;;;12.80;99.90;;;;;;4991575;28;20054;-81
2023/05/10 05:08:58;;;;;;;10.60;8.73;;;12.80;99.90;;;;;;4990081;28;20100;-81
2023/05/10 05:11:25;;;;;;;12.77;8.75;;;12.80;99.90;;;;;;4991386;28;20401;-80
2023/05/10 05:13:50;;;;;;;11.02;8.73;;;12.80;99.90;;;;;;4999358;28;20061;-82
2023/05/10 05:16:16;;;;;;;9.80;8.77;;;12.80;99.90;;;;;;4978813;28;20037;-80
2023/05/10 05:18:42;;;;;;;10.25;8.38;;;12.80;99.90;;;;;;5012829;28;20092;-81
2023/05/10 05:21:18;;;;;;;9.90;8.48;;;12.90;99.90;;;;;;5005067;28;20036;-81
2023/05/10 05:23:44;;;;;;;8.35;7.40;;;12.80;99.90;;;;;;5009456;28;20045;-80
2023/05/10 05:26:10;;;;;;;9.48;7.90;;;12.80;99.90;;;;;;4987893;28;20034;-80
2023/05/10 05:28:37;;;;;;;10.32;8.00;;;12.80;99.90;;;;;;4999990;28;20134;-80
2023/05/10 05:31:09;;;;;;;10.30;7.38;;;12.80;99.90;;;;;;4991287;28;20452;-81
2023/05/10 05:33:35;;;;;;;9.50;7.72;;;12.90;99.90;;;;;;4993771;28;20124;-83
2023/05/10 05:36:03;;;;;;;8.25;7.32;;;12.90;99.90;;;;;;4994840;28;20128;-79
2023/05/10 05:38:29;;;;;;;11.30;7.97;;;12.90;99.90;;;;;;4991813;28;20034;-80
2023/05/10 05:40:54;;;;;;;8.43;6.93;;;12.90;99.90;;;;;;5001052;28;20490;-82
2023/05/10 05:43:20;;;;;;;9.63;7.70;;;12.90;99.90;;;;;;4982491;28;20188;-80
2023/05/10 05:45:46;;;;;;;10.25;7.95;;;12.90;99.90;;;;;;4993593;28;20045;-80
2023/05/10 05:48:11;;;;;;;10.20;7.80;;;12.90;99.90;;;;;;5011903;28;20044;-80
2023/05/10 05:50:38;;;;;;;8.35;7.38;;;12.90;99.90;;;;;;4978951;28;20131;-80
2023/05/10 05:53:03;;;;;;;9.13;7.70;;;12.80;99.90;;;;;;4983285;28;20039;-80
2023/05/10 05:55:31;;;;;;;9.05;7.53;;;12.90;99.90;;;;;;4965912;28;20045;-80
2023/05/10 05:57:57;;;;;;;10.90;8.27;;;12.80;99.90;;;;;;5003946;28;20524;-80
2023/05/10 06:00:23;;;;;;;10.80;8.05;;;12.80;99.90;;;;;;4993061;28;20045;-80
2023/05/10 06:02:49;;;;;;;10.27;7.47;;;12.80;99.90;;;;;;4972627;28;20046;-83
2023/05/10 06:05:15;;;;;;;11.35;7.90;;;12.80;99.90;;;;;;4990914;28;20045;-80
2023/05/10 06:07:42;;;;;;;10.38;8.10;;;12.90;99.90;;;;;;4986848;28;20088;-80
2023/05/10 06:10:08;;;;;;;11.52;8.27;;;12.90;99.90;;;;;;4993295;28;20054;-79
2023/05/10 06:12:34;;;;;;;9.82;7.90;;;12.80;99.90;;;;;;4978132;28;20490;-80
2023/05/10 06:15:00;;;;;;;12.30;7.78;;;12.80;99.90;;;;;;4983875;28;20037;-79
2023/05/10 06:17:29;;;;;;;7.95;6.90;;;12.80;99.90;;;;;;4981411;28;20133;-83
2023/05/10 06:19:55;;;;;;;9.50;6.63;;;12.80;99.90;;;;;;4966672;28;20371;-81
2023/05/10 06:22:24;;;;;;;7.80;5.95;;;12.80;99.90;;;;;;5001348;28;20089;-81
2023/05/10 06:24:50;;;;;;;6.45;5.85;;;12.80;99.90;;;;;;4995281;28;20571;-82
2023/05/10 06:27:17;;;;;;;7.25;5.35;;;12.80;99.90;;;;;;5001539;28;20045;-83
2023/05/10 06:29:43;;;;;;;6.53;5.40;;;12.80;99.90;;;;;;4967915;28;20049;-81
2023/05/10 06:32:08;;;;;;;9.45;6.00;;;12.80;99.90;;;;;;4973072;28;20035;-83
2023/05/10 06:34:34;;;;;;;8.70;5.53;;;12.80;99.90;;;;;;4961275;28;20065;-81
2023/05/10 06:37:00;;;;;;;5.82;5.22;;;12.80;99.90;;;;;;5002675;28;20046;-81
2023/05/10 06:39:26;;;;;;;6.18;5.10;;;12.80;99.90;;;;;;4989256;28;20129;-81
2023/05/10 06:41:52;;;;;;;5.90;4.88;;;12.80;99.90;;;;;;4991469;28;20714;-81
2023/05/10 06:44:17;;;;;;;5.47;4.68;;;12.80;99.90;;;;;;5008713;28;20079;-81
2023/05/10 06:46:43;;;;;;;5.40;4.90;;;12.80;99.90;;;;;;4995054;28;20057;-81
2023/05/10 06:49:09;;;;;;;5.72;4.32;;;12.90;99.90;;;;;;5008354;28;20095;-81
2023/05/10 06:51:34;;;;;;;4.63;4.22;;;12.90;99.90;;;;;;5002385;28;20466;-81
2023/05/10 06:54:01;;;;;;;4.43;4.03;;;12.90;99.90;;;;;;5002910;28;20038;-82
2023/05/10 06:56:26;;;;;;;4.45;4.05;;;12.90;99.90;;;;;;4975682;28;20042;-84
2023/05/10 06:58:52;;;;;;;4.10;3.33;;;12.90;99.90;;;;;;4984503;28;20054;-83
2023/05/10 07:01:18;;;;;;;3.72;3.42;;;12.90;99.90;;;;;;5002018;28;20034;-82
2023/05/10 07:03:43;;;;;;;4.15;3.75;;;12.80;99.90;;;;;;4998370;28;20037;-82
2023/05/10 07:06:09;;;;;;;4.00;3.60;;;12.90;99.90;;;;;;4973975;28;20050;-82
2023/05/10 07:08:35;;;;;;;4.10;3.70;;;12.90;99.90;;;;;;4995236;28;20041;-81
2023/05/10 07:11:06;;;;;;;4.35;3.63;;;12.90;99.90;;;;;;4985467;28;20064;-81
2023/05/10 07:13:34;;;;;;;3.75;3.35;;;12.90;99.90;;;;;;4984824;28;20049;-80
2023/05/10 07:16:01;;;;;;;4.15;3.20;;;12.90;99.90;;;;;;5002786;28;20058;-83
2023/05/10 07:18:27;;;;;;;3.13;2.83;;;12.90;99.90;;;;;;4985481;28;20292;-81
2023/05/10 07:20:53;;;;;;;3.50;3.20;;;13.00;99.90;;;;;;5005740;28;20046;-82
2023/05/10 07:23:19;;;;;;;3.50;3.20;;;13.00;99.90;;;;;;5007254;28;20104;-81
2023/05/10 07:25:48;;;;;;;4.18;3.20;;;13.00;99.90;;;;;;5005009;28;20124;-81
2023/05/10 07:28:15;;;;;;;3.10;2.80;;;13.00;99.90;;;;;;5005215;28;20045;-80
2023/05/10 07:30:42;;;;;;;3.28;2.83;;;13.10;99.90;;;;;;5003510;28;20046;-81
2023/05/10 07:33:09;;;;;;;2.60;2.40;;;13.10;99.90;;;;;;4971193;28;20176;-80
2023/05/10 07:35:35;;;;;;;2.30;2.10;;;13.20;99.90;;;;;;4990127;28;20060;-80
2023/05/10 07:38:01;;;;;;;3.30;2.97;;;13.20;99.90;;;;;;5004020;28;20752;-80
2023/05/10 07:40:28;;;;;;;2.35;2.15;;;13.20;99.90;;;;;;5004978;28;20034;-80
2023/05/10 07:42:54;;;;;;;1.17;1.08;;;13.30;99.90;;;;;;5004695;28;20038;-80
2023/05/10 07:45:20;;;;;;;1.50;1.38;;;13.30;99.90;;;;;;5003860;28;20042;-80
2023/05/10 07:47:45;;;;;;;0.80;0.80;;;13.30;99.90;;;;;;4987918;28;20124;-79
2023/05/10 07:50:11;;;;;;;1.65;0.70;;;13.30;99.90;;;;;;4987871;28;20125;-82
2023/05/10 07:52:37;;;;;;;0.80;0.70;;;13.40;99.90;;;;;;4972266;28;20046;-80
2023/05/10 07:55:03;;;;;;;1.38;0.68;;;13.40;99.90;;;;;;5003516;28;20037;-81
2023/05/10 07:57:28;;;;;;;0.93;0.63;;;13.40;99.90;;;;;;4987540;28;20176;-80
2023/05/10 07:59:54;;;;;;;1.10;0.70;;;13.40;99.90;;;;;;4989194;28;20128;-82
2023/05/10 08:02:20;;;;;;;0.70;0.70;;;13.50;99.90;;;;;;5000094;28;20081;-79
2023/05/10 08:04:46;;;;;;;1.52;0.80;;;13.50;99.90;;;;;;4988113;28;20069;-80
2023/05/10 08:07:11;;;;;;;1.10;1.10;;;13.50;99.90;;;;;;4988571;28;20034;-79
2023/05/10 08:09:37;;;;;;;2.25;0.90;;;13.50;99.90;;;;;;5004895;28;21650;-80
2023/05/10 08:12:03;;;;;;;1.88;1.60;;;13.50;99.90;;;;;;4989700;28;20049;-80
2023/05/10 08:14:29;;;;;;;2.08;1.45;;;13.50;99.90;;;;;;5006089;28;20037;-80
2023/05/10 08:16:56;;;;;;;6.05;2.08;;;13.60;99.90;;;;;;4989062;28;20057;-80
2023/05/10 08:19:22;;;;;;;4.15;2.70;;;13.60;99.90;;;;;;4990208;28;20037;-79
2023/05/10 08:21:48;;;;;;;2.55;2.28;;;13.60;99.90;;;;;;5006658;28;20052;-81
2023/05/10 08:24:14;;;;;;;3.42;2.50;;;13.60;99.90;;;;;;5007062;28;20049;-80
2023/05/10 08:26:40;;;;;;;3.17;2.85;;;13.60;99.90;;;;;;4991919;28;20037;-83
2023/05/10 08:29:06;;;;;;;2.75;2.53;;;13.70;99.90;;;;;;5004882;28;20033;-83
2023/05/10 08:31:32;;;;;;;3.53;2.90;;;13.70;99.90;;;;;;4987842;28;20045;-82
2023/05/10 08:33:58;;;;;;;3.50;2.92;;;13.70;99.90;;;;;;4990502;28;20041;-81
2023/05/10 08:36:24;;;;;;;2.88;2.45;;;13.80;99.90;;;;;;4988349;28;20046;-83
2023/05/10 08:38:53;;;;;;;2.88;2.50;;;13.70;99.90;;;;;;4991009;28;20046;-84
2023/05/10 08:41:24;;;;;;;4.38;2.83;;;13.70;99.90;;;;;;4991476;28;20087;-81
2023/05/10 08:43:53;;;;;;;3.72;2.85;;;13.60;99.90;;;;;;5009710;28;20046;-82
2023/05/10 08:46:21;;;;;;;2.67;2.30;;;13.60;99.90;;;;;;5008500;28;20179;-83
2023/05/10 08:48:49;;;;;;;3.22;2.90;;;13.50;99.90;;;;;;4988980;28;20033;-80
2023/05/10 08:51:19;;;;;;;3.42;3.13;;;13.50;99.90;;;;;;5005706;28;20045;-84
2023/05/10 08:53:45;;;;;;;3.20;2.90;;;13.40;99.90;;;;;;5008521;28;20361;-84
2023/05/10 08:56:11;;;;;;;3.17;2.95;;;13.40;99.90;;;;;;4990984;28;20049;-82
2023/05/10 08:58:38;;;;;;;3.63;3.33;;;13.40;99.90;;;;;;4990346;28;20041;-81
2023/05/10 09:01:05;;;;;;;4.65;3.80;;;13.40;99.90;;;;;;4990929;28;20049;-85
2023/05/10 09:03:31;;;;;;;4.22;3.42;;;13.40;99.90;;;;;;4991625;28;20683;-83
2023/05/10 09:05:57;;;;;;;4.15;3.78;;;13.40;99.90;;;;;;5003438;28;20045;-84
2023/05/10 09:08:26;;;;;;;9.27;3.78;;;13.40;99.90;;;;;;4990547;28;20401;-83
2023/05/10 09:10:54;;;;;;;4.43;3.70;;;13.40;99.90;;;;;;5024472;28;20512;-84
2023/05/10 09:13:20;;;;;;;4.38;3.97;;;13.40;99.90;;;;;;4974531;28;20041;-90
2023/05/10 09:15:53;;;;;;;4.65;4.00;;;13.30;99.90;;;;;;4990721;28;20455;-84
2023/05/10 09:18:19;;;;;;;4.10;3.70;;;13.30;99.90;;;;;;4989818;28;20038;-85
2023/05/10 09:20:44;;;;;;;4.15;3.75;;;13.30;99.90;;;;;;5001853;28;20519;-83
2023/05/10 09:23:10;;;;;;;4.10;3.70;;;13.30;99.90;;;;;;4989756;28;20119;-85
2023/05/10 09:25:38;;;;;;;5.13;3.75;;;13.30;99.90;;;;;;4989187;28;20358;-85
2023/05/10 09:28:07;;;;;;;4.45;4.05;;;13.30;99.90;;;;;;5006698;28;20127;-85
2023/05/10 09:30:33;;;;;;;4.72;3.30;;;13.40;99.90;;;;;;5006389;28;20053;-86
2023/05/10 09:33:00;;;;;;;4.80;3.65;;;13.50;99.90;;;;;;4990751;28;20037;-88
2023/05/10 09:35:27;;;;;;;5.78;3.50;;;13.50;99.90;;;;;;4989885;28;20548;-86
2023/05/10 09:37:55;;;;;;;2.97;2.78;;;13.60;99.90;;;;;;5005175;28;20041;-86
2023/05/10 09:40:23;;;;;;;4.47;2.92;;;13.60;99.90;;;;;;4990028;28;20045;-87
2023/05/10 09:43:05;;;;;;;2.40;2.17;;;13.70;99.90;;;;;;4990567;28;20132;-87
2023/05/10 09:45:34;;;;;;;3.03;2.47;;;13.80;99.90;;;;;;4991127;28;20037;-86
2023/05/10 09:48:02;;;;;;;4.35;2.60;;;13.80;99.90;;;;;;4988080;28;20627;-88
2023/05/10 09:50:28;;;;;;;3.17;2.88;;;13.90;99.90;;;;;;4989302;28;20056;-87
2023/05/10 09:52:57;;;;;;;2.88;2.42;;;13.90;99.90;;;;;;4988986;28;20112;-87
2023/05/10 09:55:40;;;;;;;2.92;2.72;;;13.90;99.90;;;;;;5005848;28;20489;-86
2023/05/10 09:58:09;;;;;;;3.78;2.90;;;14.00;99.90;;;;;;4990308;28;20488;-87
2023/05/10 10:00:40;;;;;;;3.70;2.97;;;14.10;99.90;;;;;;4990130;28;20496;-85
2023/05/10 10:03:11;;;;;;;4.75;3.30;;;14.10;99.90;;;;;;5005965;28;20136;-91
2023/05/10 10:05:42;;;;;;;5.30;3.58;;;14.10;99.90;;;;;;5006833;28;20068;-87
2023/05/10 10:08:08;;;;;;;3.90;3.50;;;14.20;99.90;;;;;;5006716;28;20746;-87
2023/05/10 10:10:34;;;;;;;4.43;4.03;;;14.10;99.90;;;;;;4967519;28;20077;-87
2023/05/10 10:13:01;;;;;;;5.93;4.15;;;14.10;99.90;;;;;;4986322;28;20045;-87
2023/05/10 10:15:27;;;;;;;5.55;4.43;;;14.10;99.90;;;;;;5003494;28;20052;-86
2023/05/10 10:17:53;;;;;;;5.63;5.00;;;14.20;99.90;;;;;;5003616;28;20041;-85
2023/05/10 10:20:20;;;;;;;6.13;5.53;;;14.20;99.90;;;;;;5003283;28;20112;-88
2023/05/10 10:22:47;;;;;;;7.10;5.70;;;14.20;99.90;;;;;;4988548;28;20128;-89
2023/05/10 10:25:17;;;;;;;6.35;5.53;;;14.30;99.90;;;;;;4988982;28;20080;-89
2023/05/10 10:27:52;;;;;;;6.20;5.18;;;14.40;99.90;;;;;;4987504;28;20046;-91
2023/05/10 10:30:27;;;;;;;6.40;5.70;;;14.60;99.90;;;;;;4985873;28;20042;-89
2023/05/10 10:33:12;;;;;;;5.45;4.85;;;14.90;99.90;;;;;;5006926;28;20042;-89
2023/05/10 10:35:38;;;;;;;7.22;5.25;;;15.10;99.90;;;;;;5005420;28;20034;-91
2023/05/10 10:38:04;;;;;;;6.53;4.60;;;15.10;99.90;;;;;;4987441;28;20045;-90
2023/05/10 10:40:32;;;;;;;5.43;4.88;;;15.10;99.90;;;;;;4986603;28;20378;-89
2023/05/10 10:43:18;;;;;;;6.38;5.28;;;15.10;99.90;;;;;;4987303;28;20497;-91
2023/05/10 10:46:07;;;;;;;7.70;5.43;;;14.90;99.90;;;;;;4990638;28;20440;-90
2023/05/10 10:48:33;;;;;;;6.53;5.60;;;14.80;99.90;;;;;;5006388;28;20042;-90
2023/05/10 10:50:59;;;;;;;6.68;5.85;;;14.70;99.90;;;;;;4987732;28;20057;-89
2023/05/10 10:53:28;;;;;;;6.85;5.70;;;14.60;99.90;;;;;;4992764;28;20088;-90
2023/05/10 10:56:14;;;;;;;7.93;5.63;;;14.60;99.90;;;;;;4991490;28;20069;-91
2023/05/10 10:58:41;;;;;;;6.95;5.80;;;14.50;99.90;;;;;;4993291;28;20046;-91
2023/05/10 11:01:15;;;;;;;6.88;6.18;;;14.50;99.90;;;;;;4998685;28;20042;-90
2023/05/10 11:04:01;;;;;;;8.20;6.13;;;14.50;99.90;;;;;;4982558;28;20045;-91
2023/05/10 11:06:35;;;;;;;6.57;5.85;;;14.50;99.90;;;;;;5000769;28;20093;-88
2023/05/10 11:09:09;;;;;;;8.10;6.00;;;14.50;99.90;;;;;;4979237;28;20490;-89
2023/05/10 11:11:35;;;;;;;6.75;6.03;;;14.60;99.90;;;;;;4980429;28;20056;-88
2023/05/10 11:14:07;;;;;;;7.07;6.00;;;14.70;99.90;;;;;;5004641;28;20382;-87
2023/05/10 11:16:44;;;;;;;6.60;5.82;;;14.80;99.90;;;;;;4990562;28;20046;-89
2023/05/10 11:19:15;;;;;;;7.88;6.15;;;14.80;99.90;;;;;;4981592;28;20108;-89
2023/05/10 11:22:15;;;;;;;12.93;9.15;;;15.00;99.90;;;;;;5007304;28;20563;-88
2023/05/10 11:24:58;;;;;;;7.63;6.28;;;15.10;99.90;;;;;;4997605;28;20121;-82
2023/05/10 11:27:24;;;;;;;11.60;6.22;;;15.20;99.90;;;;;;5001771;28;20200;-82
2023/05/10 11:29:53;;;;;;;7.97;5.72;;;15.20;99.90;;;;;;4996739;28;20053;-83
2023/05/10 11:32:19;;;;;;;7.82;5.90;;;15.30;99.90;;;;;;4992017;28;20041;-82
2023/05/10 11:34:50;;;;;;;6.38;4.63;;;15.30;99.90;;;;;;4990265;28;20053;-83
2023/05/10 11:37:18;;;;;;;9.57;5.80;;;15.40;99.90;;;;;;4991023;28;20413;-83
2023/05/10 11:39:47;;;;;;;9.07;6.07;;;15.30;99.90;;;;;;4991143;28;20135;-83
2023/05/10 11:42:15;;;;;;;;;;;15.30;99.90;;;;;;4995093;28;20037;-83
2023/05/10 11:44:47;;;;;;;7.13;5.65;;;15.30;99.90;;;;;;4989380;28;19926;-83
2023/05/10 11:47:18;;;;;;;19.75;6.38;;;15.30;99.90;;;;;;5009683;28;20041;-82
2023/05/10 11:50:03;;;;;;;6.95;5.43;;;15.30;99.90;;;;;;5003698;28;20049;-83
2023/05/10 11:52:29;;;;;;;6.28;5.28;;;15.40;99.90;;;;;;4989389;28;20045;-83
2023/05/10 11:54:55;;;;;;;7.75;5.32;;;15.40;99.90;;;;;;5005320;28;20038;-82
2023/05/10 11:57:26;;;;;;;8.80;5.03;;;15.40;99.90;;;;;;4983757;28;20042;-83
2023/05/10 11:59:57;;;;;;;6.95;5.18;;;15.40;99.90;;;;;;5002626;28;20143;-84
2023/05/10 12:02:25;;;;;;;6.68;5.13;;;15.50;99.90;;;;;;5002679;28;20114;-84
2023/05/10 12:04:56;;;;;;;6.63;5.40;;;15.50;99.90;;;;;;4974124;28;20069;-83
2023/05/10 12:07:21;;;;;;;7.38;5.20;;;15.50;99.90;;;;;;5010322;28;20084;-83
2023/05/10 12:10:10;;;;;;;6.30;5.40;;;15.40;99.90;;;;;;4977856;28;20074;-83
2023/05/10 12:12:43;;;;;;;8.50;5.38;;;15.40;99.90;;;;;;4993267;28;20045;-83
2023/05/10 12:15:19;;;;;;;7.40;5.53;;;15.30;99.90;;;;;;4992115;28;20041;-83
2023/05/10 12:17:45;;;;;;;8.10;5.57;;;15.20;99.90;;;;;;4994076;28;20421;-82
2023/05/10 12:20:15;;;;;;;7.88;5.43;;;15.30;99.90;;;;;;4994188;28;20049;-82
2023/05/10 12:22:43;;;;;;;7.68;5.70;;;15.30;99.90;;;;;;4990270;28;20168;-82
2023/05/10 12:25:10;;;;;;;7.82;5.25;;;15.20;99.90;;;;;;4989932;28;20046;-83
2023/05/10 12:27:41;;;;;;;6.70;5.28;;;15.30;99.90;;;;;;4995457;28;20480;-83
2023/05/10 12:30:10;;;;;;;5.47;4.63;;;15.20;99.90;;;;;;4990846;28;20176;-83
2023/05/10 12:32:43;;;;;;;6.93;5.07;;;15.10;99.90;;;;;;5003053;28;20328;-83
2023/05/10 12:35:09;;;;;;;7.35;5.28;;;15.10;99.90;;;;;;4995644;28;20134;-83
2023/05/10 12:37:38;;;;;;;6.72;5.53;;;15.00;99.90;;;;;;4998261;28;20057;-83
2023/05/10 12:40:09;;;;;;;6.80;5.30;;;15.00;99.90;;;;;;4995017;28;20091;-83
2023/05/10 12:42:35;;;;;;;11.15;5.78;;;14.90;99.90;;;;;;4994323;28;20041;-83
2023/05/10 12:45:02;;;;;;;7.00;5.40;;;15.00;99.90;;;;;;4989922;28;20132;-83
2023/05/10 12:47:28;;;;;;;6.35;5.40;;;15.00;99.90;;;;;;5000266;28;20068;-83